sensor_id;sensor_type;location;lat;lon;timestamp;pressure;altitude;pressure_sealevel;temperature;humidity
66396;BME280;53207;51.378;-1.342;2023-03-03T00:01:16;101343.60;;;19.73;33.77
66396;BME280;53207;51.378;-1.342;2023-03-03T00:03:43;101345.84;;;19.70;33.63
66396;BME280;53207;51.378;-1.342;2023-03-03T00:06:12;101347.27;;;19.44;33.58
66396;BME280;53207;51.378;-1.342;2023-03-03T00:08:40;101353.00;;;19.59;33.51
66396;BME280;53207;51.378;-1.342;2023-03-03T00:11:09;101357.88;;;19.06;33.47
66396;BME280;53207;51.378;-1.342;2023-03-03T00:13:43;101361.45;;;19.32;33.43
66396;BME280;53207;51.378;-1.342;2023-03-03T00:16:14;101365.46;;;19.53;33.24
66396;BME280;53207;51.378;-1.342;2023-03-03T00:18:44;101366.10;;;19.26;33.22
66396;BME280;53207;51.378;-1.342;2023-03-03T00:21:29;101366.27;;;19.48;33.21
66396;BME280;53207;51.378;-1.342;2023-03-03T00:24:16;101363.48;;;19.28;33.03
66396;BME280;53207;51.378;-1.342;2023-03-03T00:26:45;101363.46;;;19.26;32.92
66396;BME280;53207;51.378;-1.342;2023-03-03T00:29:33;101363.66;;;19.45;32.85
66396;BME280;53207;51.378;-1.342;2023-03-03T00:32:19;101362.32;;;18.89;32.90
66396;BME280;53207;51.378;-1.342;2023-03-03T00:34:48;101366.31;;;19.33;32.93
66396;BME280;53207;51.378;-1.342;2023-03-03T00:37:27;101365.30;;;19.29;32.88
66396;BME280;53207;51.378;-1.342;2023-03-03T00:39:58;101365.95;;;19.35;32.78
66396;BME280;53207;51.378;-1.342;2023-03-03T00:42:27;101365.70;;;19.35;32.71
66396;BME280;53207;51.378;-1.342;2023-03-03T00:44:56;101365.74;;;19.19;32.51
66396;BME280;53207;51.378;-1.342;2023-03-03T00:47:28;101361.06;;;19.20;32.35
66396;BME280;53207;51.378;-1.342;2023-03-03T00:50:35;101364.89;;;18.89;32.37
66396;BME280;53207;51.378;-1.342;2023-03-03T00:53:10;101363.16;;;19.18;32.18
66396;BME280;53207;51.378;-1.342;2023-03-03T00:55:38;101365.12;;;19.39;32.06
66396;BME280;53207;51.378;-1.342;2023-03-03T00:58:06;101371.07;;;19.18;31.93
66396;BME280;53207;51.378;-1.342;2023-03-03T01:00:33;101373.20;;;19.17;31.88
66396;BME280;53207;51.378;-1.342;2023-03-03T01:03:03;101375.62;;;19.40;31.76
66396;BME280;53207;51.378;-1.342;2023-03-03T01:05:31;101377.13;;;18.91;31.72
66396;BME280;53207;51.378;-1.342;2023-03-03T01:07:58;101376.14;;;19.18;31.65
66396;BME280;53207;51.378;-1.342;2023-03-03T01:10:26;101383.37;;;19.17;31.59
66396;BME280;53207;51.378;-1.342;2023-03-03T01:12:54;101384.27;;;19.15;31.57
66396;BME280;53207;51.378;-1.342;2023-03-03T01:15:22;101382.70;;;19.37;31.51
66396;BME280;53207;51.378;-1.342;2023-03-03T01:17:50;101383.68;;;19.15;31.52
66396;BME280;53207;51.378;-1.342;2023-03-03T01:20:18;101383.18;;;19.10;31.52
66396;BME280;53207;51.378;-1.342;2023-03-03T01:22:45;101386.99;;;19.29;31.43
66396;BME280;53207;51.378;-1.342;2023-03-03T01:25:12;101386.19;;;19.20;31.47
66396;BME280;53207;51.378;-1.342;2023-03-03T01:27:39;101386.20;;;19.16;31.51
66396;BME280;53207;51.378;-1.342;2023-03-03T01:30:08;101386.77;;;19.10;31.57
66396;BME280;53207;51.378;-1.342;2023-03-03T01:32:40;101391.13;;;19.05;31.55
66396;BME280;53207;51.378;-1.342;2023-03-03T01:35:08;101392.43;;;19.04;31.56
66396;BME280;53207;51.378;-1.342;2023-03-03T01:37:36;101392.72;;;19.07;31.47
66396;BME280;53207;51.378;-1.342;2023-03-03T01:40:10;101397.38;;;19.01;31.55
66396;BME280;53207;51.378;-1.342;2023-03-03T01:42:38;101396.74;;;19.06;31.49
66396;BME280;53207;51.378;-1.342;2023-03-03T01:45:16;101395.62;;;19.06;31.50
66396;BME280;53207;51.378;-1.342;2023-03-03T01:47:48;101396.61;;;19.07;31.46
66396;BME280;53207;51.378;-1.342;2023-03-03T01:50:27;101395.04;;;19.02;31.52
66396;BME280;53207;51.378;-1.342;2023-03-03T01:52:59;101394.85;;;19.00;31.54
66396;BME280;53207;51.378;-1.342;2023-03-03T01:55:30;101389.11;;;18.98;31.50
66396;BME280;53207;51.378;-1.342;2023-03-03T01:58:03;101391.53;;;18.95;31.55
66396;BME280;53207;51.378;-1.342;2023-03-03T02:00:33;101389.33;;;18.94;31.53
66396;BME280;53207;51.378;-1.342;2023-03-03T02:03:02;101390.35;;;18.72;31.52
66396;BME280;53207;51.378;-1.342;2023-03-03T02:05:29;101395.01;;;18.72;31.50
66396;BME280;53207;51.378;-1.342;2023-03-03T02:07:56;101393.19;;;18.92;31.51
66396;BME280;53207;51.378;-1.342;2023-03-03T02:10:24;101393.05;;;18.92;31.51
66396;BME280;53207;51.378;-1.342;2023-03-03T02:12:53;101393.19;;;18.91;31.49
66396;BME280;53207;51.378;-1.342;2023-03-03T02:15:23;101395.69;;;18.95;31.45
66396;BME280;53207;51.378;-1.342;2023-03-03T02:17:53;101394.23;;;18.93;31.43
66396;BME280;53207;51.378;-1.342;2023-03-03T02:20:37;101399.26;;;18.93;31.47
66396;BME280;53207;51.378;-1.342;2023-03-03T02:23:12;101399.34;;;18.99;31.33
66396;BME280;53207;51.378;-1.342;2023-03-03T02:25:46;101400.23;;;18.99;31.32
66396;BME280;53207;51.378;-1.342;2023-03-03T02:28:15;101399.01;;;18.98;31.31
66396;BME280;53207;51.378;-1.342;2023-03-03T02:30:43;101401.52;;;18.99;31.30
66396;BME280;53207;51.378;-1.342;2023-03-03T02:33:10;101405.22;;;18.95;31.29
66396;BME280;53207;51.378;-1.342;2023-03-03T02:35:39;101404.07;;;18.94;31.28
66396;BME280;53207;51.378;-1.342;2023-03-03T02:38:16;101407.86;;;18.73;31.30
66396;BME280;53207;51.378;-1.342;2023-03-03T02:40:52;101409.54;;;18.93;31.34
66396;BME280;53207;51.378;-1.342;2023-03-03T02:43:24;101415.24;;;18.97;31.32
66396;BME280;53207;51.378;-1.342;2023-03-03T02:45:54;101414.01;;;19.00;31.26
66396;BME280;53207;51.378;-1.342;2023-03-03T02:48:21;101414.85;;;18.75;31.26
66396;BME280;53207;51.378;-1.342;2023-03-03T02:50:49;101413.04;;;19.02;31.27
66396;BME280;53207;51.378;-1.342;2023-03-03T02:53:16;101409.92;;;19.02;31.15
66396;BME280;53207;51.378;-1.342;2023-03-03T02:55:43;101412.24;;;18.59;31.06
66396;BME280;53207;51.378;-1.342;2023-03-03T02:58:11;101412.26;;;19.09;31.05
66396;BME280;53207;51.378;-1.342;2023-03-03T03:00:38;101409.96;;;18.89;31.00
66396;BME280;53207;51.378;-1.342;2023-03-03T03:03:05;101411.23;;;19.12;30.94
66396;BME280;53207;51.378;-1.342;2023-03-03T03:05:33;101414.04;;;19.07;31.00
66396;BME280;53207;51.378;-1.342;2023-03-03T03:08:00;101413.85;;;19.09;30.93
66396;BME280;53207;51.378;-1.342;2023-03-03T03:10:27;101416.38;;;19.07;30.96
66396;BME280;53207;51.378;-1.342;2023-03-03T03:12:55;101416.04;;;18.99;30.98
66396;BME280;53207;51.378;-1.342;2023-03-03T03:15:22;101414.12;;;18.97;30.99
66396;BME280;53207;51.378;-1.342;2023-03-03T03:17:49;101414.04;;;18.89;31.14
66396;BME280;53207;51.378;-1.342;2023-03-03T03:20:17;101416.22;;;18.82;31.22
66396;BME280;53207;51.378;-1.342;2023-03-03T03:22:44;101415.39;;;18.87;31.16
66396;BME280;53207;51.378;-1.342;2023-03-03T03:25:12;101418.23;;;18.82;31.19
66396;BME280;53207;51.378;-1.342;2023-03-03T03:27:39;101414.58;;;18.81;31.16
66396;BME280;53207;51.378;-1.342;2023-03-03T03:30:07;101407.35;;;18.86;31.05
66396;BME280;53207;51.378;-1.342;2023-03-03T03:32:35;101406.10;;;18.82;31.08
66396;BME280;53207;51.378;-1.342;2023-03-03T03:35:03;101409.58;;;18.81;31.09
66396;BME280;53207;51.378;-1.342;2023-03-03T03:37:30;101411.87;;;18.80;31.08
66396;BME280;53207;51.378;-1.342;2023-03-03T03:39:57;101412.45;;;18.80;31.07
66396;BME280;53207;51.378;-1.342;2023-03-03T03:42:24;101409.59;;;18.78;31.10
66396;BME280;53207;51.378;-1.342;2023-03-03T03:44:52;101409.09;;;18.77;31.10
66396;BME280;53207;51.378;-1.342;2023-03-03T03:47:19;101409.71;;;18.71;31.18
66396;BME280;53207;51.378;-1.342;2023-03-03T03:49:46;101409.49;;;18.72;31.19
66396;BME280;53207;51.378;-1.342;2023-03-03T03:52:14;101410.54;;;19.01;31.24
66396;BME280;53207;51.378;-1.342;2023-03-03T03:54:41;101408.93;;;18.70;31.24
66396;BME280;53207;51.378;-1.342;2023-03-03T03:57:08;101408.20;;;18.81;31.15
66396;BME280;53207;51.378;-1.342;2023-03-03T03:59:36;101407.73;;;18.85;31.03
66396;BME280;53207;51.378;-1.342;2023-03-03T04:02:03;101407.03;;;18.91;30.98
66396;BME280;53207;51.378;-1.342;2023-03-03T04:04:30;101405.86;;;18.71;30.92
66396;BME280;53207;51.378;-1.342;2023-03-03T04:06:57;101409.05;;;18.95;30.85
66396;BME280;53207;51.378;-1.342;2023-03-03T04:09:25;101409.37;;;18.99;30.82
66396;BME280;53207;51.378;-1.342;2023-03-03T04:11:52;101409.97;;;18.79;30.76
66396;BME280;53207;51.378;-1.342;2023-03-03T04:14:19;101410.04;;;18.78;30.73
66396;BME280;53207;51.378;-1.342;2023-03-03T04:16:47;101407.63;;;19.01;30.73
66396;BME280;53207;51.378;-1.342;2023-03-03T04:19:14;101407.45;;;18.97;30.74
66396;BME280;53207;51.378;-1.342;2023-03-03T04:21:41;101408.35;;;18.70;30.82
66396;BME280;53207;51.378;-1.342;2023-03-03T04:24:09;101406.34;;;18.94;30.86
66396;BME280;53207;51.378;-1.342;2023-03-03T04:26:36;101405.81;;;18.92;30.88
66396;BME280;53207;51.378;-1.342;2023-03-03T04:29:03;101403.93;;;18.98;30.80
66396;BME280;53207;51.378;-1.342;2023-03-03T04:31:31;101404.07;;;18.96;30.79
66396;BME280;53207;51.378;-1.342;2023-03-03T04:33:58;101403.08;;;18.75;30.77
66396;BME280;53207;51.378;-1.342;2023-03-03T04:36:25;101401.34;;;18.94;30.80
66396;BME280;53207;51.378;-1.342;2023-03-03T04:38:53;101403.25;;;19.00;30.70
66396;BME280;53207;51.378;-1.342;2023-03-03T04:41:20;101406.18;;;18.97;30.70
66396;BME280;53207;51.378;-1.342;2023-03-03T04:43:47;101406.42;;;18.99;30.64
66396;BME280;53207;51.378;-1.342;2023-03-03T04:46:15;101408.97;;;18.96;30.64
66396;BME280;53207;51.378;-1.342;2023-03-03T04:48:42;101408.93;;;18.99;30.54
66396;BME280;53207;51.378;-1.342;2023-03-03T04:51:09;101404.65;;;18.95;30.59
66396;BME280;53207;51.378;-1.342;2023-03-03T04:53:37;101402.07;;;18.92;30.69
66396;BME280;53207;51.378;-1.342;2023-03-03T04:56:04;101398.83;;;18.93;30.76
66396;BME280;53207;51.378;-1.342;2023-03-03T04:58:31;101401.40;;;18.95;30.79
66396;BME280;53207;51.378;-1.342;2023-03-03T05:00:59;101398.56;;;18.98;30.77
66396;BME280;53207;51.378;-1.342;2023-03-03T05:03:26;101404.40;;;18.97;30.77
66396;BME280;53207;51.378;-1.342;2023-03-03T05:05:53;101404.41;;;19.03;30.68
66396;BME280;53207;51.378;-1.342;2023-03-03T05:08:21;101403.57;;;19.03;30.62
66396;BME280;53207;51.378;-1.342;2023-03-03T05:10:51;101404.92;;;19.03;30.59
66396;BME280;53207;51.378;-1.342;2023-03-03T05:13:19;101402.30;;;19.02;30.58
66396;BME280;53207;51.378;-1.342;2023-03-03T05:15:49;101404.84;;;19.01;30.58
66396;BME280;53207;51.378;-1.342;2023-03-03T05:18:17;101399.95;;;19.02;30.52
66396;BME280;53207;51.378;-1.342;2023-03-03T05:20:44;101396.33;;;19.04;30.46
66396;BME280;53207;51.378;-1.342;2023-03-03T05:23:12;101398.37;;;19.03;30.43
66396;BME280;53207;51.378;-1.342;2023-03-03T05:25:39;101397.76;;;19.01;30.43
66396;BME280;53207;51.378;-1.342;2023-03-03T05:28:06;101393.18;;;18.99;30.43
66396;BME280;53207;51.378;-1.342;2023-03-03T05:30:34;101397.05;;;18.93;30.60
66396;BME280;53207;51.378;-1.342;2023-03-03T05:33:02;101395.91;;;18.76;30.64
66396;BME280;53207;51.378;-1.342;2023-03-03T05:35:30;101395.17;;;19.01;30.64
66396;BME280;53207;51.378;-1.342;2023-03-03T05:37:57;101393.29;;;19.03;30.64
66396;BME280;53207;51.378;-1.342;2023-03-03T05:40:25;101394.03;;;18.87;30.58
66396;BME280;53207;51.378;-1.342;2023-03-03T05:42:53;101394.50;;;19.04;30.61
66396;BME280;53207;51.378;-1.342;2023-03-03T05:45:20;101394.09;;;19.07;30.56
66396;BME280;53207;51.378;-1.342;2023-03-03T05:47:47;101397.78;;;18.82;30.56
66396;BME280;53207;51.378;-1.342;2023-03-03T05:50:15;101401.25;;;19.04;30.51
66396;BME280;53207;51.378;-1.342;2023-03-03T05:52:42;101398.34;;;18.83;30.47
66396;BME280;53207;51.378;-1.342;2023-03-03T05:55:10;101400.30;;;19.30;30.45
66396;BME280;53207;51.378;-1.342;2023-03-03T05:57:38;101400.39;;;19.05;30.40
66396;BME280;53207;51.378;-1.342;2023-03-03T06:00:07;101401.66;;;19.04;30.35
66396;BME280;53207;51.378;-1.342;2023-03-03T06:02:35;101404.06;;;18.99;30.41
66396;BME280;53207;51.378;-1.342;2023-03-03T06:05:02;101405.36;;;18.95;30.45
66396;BME280;53207;51.378;-1.342;2023-03-03T06:07:29;101402.92;;;18.92;30.55
66396;BME280;53207;51.378;-1.342;2023-03-03T06:09:57;101405.88;;;18.79;30.71
66396;BME280;53207;51.378;-1.342;2023-03-03T06:12:24;101409.22;;;18.91;30.64
66396;BME280;53207;51.378;-1.342;2023-03-03T06:14:51;101411.22;;;18.88;30.64
66396;BME280;53207;51.378;-1.342;2023-03-03T06:17:19;101410.82;;;18.67;30.61
66396;BME280;53207;51.378;-1.342;2023-03-03T06:19:46;101410.57;;;18.71;30.57
66396;BME280;53207;51.378;-1.342;2023-03-03T06:22:14;101409.02;;;18.96;30.50
66396;BME280;53207;51.378;-1.342;2023-03-03T06:24:41;101412.58;;;18.95;30.45
66396;BME280;53207;51.378;-1.342;2023-03-03T06:27:09;101411.12;;;18.98;30.38
66396;BME280;53207;51.378;-1.342;2023-03-03T06:29:36;101412.89;;;18.99;30.39
66396;BME280;53207;51.378;-1.342;2023-03-03T06:32:04;101413.73;;;18.75;30.42
66396;BME280;53207;51.378;-1.342;2023-03-03T06:34:31;101413.44;;;18.97;30.41
66396;BME280;53207;51.378;-1.342;2023-03-03T06:36:58;101414.55;;;18.94;30.52
66396;BME280;53207;51.378;-1.342;2023-03-03T06:39:26;101418.92;;;18.97;30.56
66396;BME280;53207;51.378;-1.342;2023-03-03T06:41:53;101414.86;;;19.01;30.57
66396;BME280;53207;51.378;-1.342;2023-03-03T06:44:20;101416.94;;;19.03;30.56
66396;BME280;53207;51.378;-1.342;2023-03-03T06:46:48;101417.43;;;18.81;30.58
66396;BME280;53207;51.378;-1.342;2023-03-03T06:49:15;101419.44;;;19.06;30.55
66396;BME280;53207;51.378;-1.342;2023-03-03T06:51:42;101422.39;;;19.06;30.56
66396;BME280;53207;51.378;-1.342;2023-03-03T06:54:12;101427.97;;;19.08;30.56
66396;BME280;53207;51.378;-1.342;2023-03-03T06:56:40;101425.61;;;19.06;30.61
66396;BME280;53207;51.378;-1.342;2023-03-03T06:59:12;101429.17;;;18.57;30.62
66396;BME280;53207;51.378;-1.342;2023-03-03T07:01:40;101430.46;;;19.06;30.62
66396;BME280;53207;51.378;-1.342;2023-03-03T07:04:16;101428.62;;;19.03;30.72
66396;BME280;53207;51.378;-1.342;2023-03-03T07:06:48;101436.34;;;18.76;30.79
66396;BME280;53207;51.378;-1.342;2023-03-03T07:09:20;101437.54;;;18.98;30.88
66396;BME280;53207;51.378;-1.342;2023-03-03T07:11:47;101440.55;;;18.95;30.96
66396;BME280;53207;51.378;-1.342;2023-03-03T07:14:17;101445.68;;;18.95;30.96
66396;BME280;53207;51.378;-1.342;2023-03-03T07:16:46;101445.97;;;18.91;31.01
66396;BME280;53207;51.378;-1.342;2023-03-03T07:19:19;101450.27;;;18.95;30.98
66396;BME280;53207;51.378;-1.342;2023-03-03T07:21:47;101452.24;;;18.98;30.92
66396;BME280;53207;51.378;-1.342;2023-03-03T07:24:24;101456.36;;;18.93;30.93
66396;BME280;53207;51.378;-1.342;2023-03-03T07:26:51;101458.61;;;18.84;31.04
66396;BME280;53207;51.378;-1.342;2023-03-03T07:29:22;101461.67;;;18.85;31.01
66396;BME280;53207;51.378;-1.342;2023-03-03T07:31:50;101457.78;;;18.90;30.94
66396;BME280;53207;51.378;-1.342;2023-03-03T07:34:21;101459.67;;;18.87;30.93
66396;BME280;53207;51.378;-1.342;2023-03-03T07:36:49;101462.75;;;18.88;30.90
66396;BME280;53207;51.378;-1.342;2023-03-03T07:39:26;101461.80;;;18.85;30.97
66396;BME280;53207;51.378;-1.342;2023-03-03T07:41:59;101460.88;;;18.89;30.98
66396;BME280;53207;51.378;-1.342;2023-03-03T07:44:33;101464.24;;;19.19;31.05
66396;BME280;53207;51.378;-1.342;2023-03-03T07:47:14;101465.54;;;18.94;31.05
66396;BME280;53207;51.378;-1.342;2023-03-03T07:49:43;101470.78;;;18.93;31.02
66396;BME280;53207;51.378;-1.342;2023-03-03T07:52:23;101471.88;;;18.98;30.95
66396;BME280;53207;51.378;-1.342;2023-03-03T07:54:52;101473.68;;;18.91;30.99
66396;BME280;53207;51.378;-1.342;2023-03-03T07:57:22;101479.16;;;18.91;30.97
66396;BME280;53207;51.378;-1.342;2023-03-03T07:59:52;101484.32;;;18.81;30.83
66396;BME280;53207;51.378;-1.342;2023-03-03T08:02:33;101487.95;;;18.97;30.89
66396;BME280;53207;51.378;-1.342;2023-03-03T08:05:29;101487.40;;;18.79;30.81
66396;BME280;53207;51.378;-1.342;2023-03-03T08:08:12;101494.35;;;18.85;31.02
66396;BME280;53207;51.378;-1.342;2023-03-03T08:10:45;101493.04;;;18.83;30.84
66396;BME280;53207;51.378;-1.342;2023-03-03T08:13:17;101494.15;;;18.64;30.77
66396;BME280;53207;51.378;-1.342;2023-03-03T08:15:46;101498.14;;;18.96;30.75
66396;BME280;53207;51.378;-1.342;2023-03-03T08:18:22;101500.81;;;19.00;30.76
66396;BME280;53207;51.378;-1.342;2023-03-03T08:20:51;101500.41;;;19.29;30.68
66396;BME280;53207;51.378;-1.342;2023-03-03T08:23:20;101504.27;;;19.35;30.64
66396;BME280;53207;51.378;-1.342;2023-03-03T08:25:50;101504.96;;;19.39;30.58
66396;BME280;53207;51.378;-1.342;2023-03-03T08:28:18;101503.80;;;19.15;30.68
66396;BME280;53207;51.378;-1.342;2023-03-03T08:30:47;101500.41;;;18.64;30.98
66396;BME280;53207;51.378;-1.342;2023-03-03T08:33:15;101508.38;;;19.42;30.81
66396;BME280;53207;51.378;-1.342;2023-03-03T08:35:43;101509.93;;;19.23;30.87
66396;BME280;53207;51.378;-1.342;2023-03-03T08:38:12;101508.49;;;19.00;31.21
66396;BME280;53207;51.378;-1.342;2023-03-03T08:40:40;101509.64;;;19.13;31.21
66396;BME280;53207;51.378;-1.342;2023-03-03T08:43:08;101515.01;;;19.24;31.33
66396;BME280;53207;51.378;-1.342;2023-03-03T08:45:36;101515.57;;;19.46;31.37
66396;BME280;53207;51.378;-1.342;2023-03-03T08:48:03;101517.46;;;19.48;31.30
66396;BME280;53207;51.378;-1.342;2023-03-03T08:50:30;101519.06;;;19.23;31.32
66396;BME280;53207;51.378;-1.342;2023-03-03T08:52:57;101518.63;;;19.24;31.25
66396;BME280;53207;51.378;-1.342;2023-03-03T08:55:25;101518.98;;;18.91;31.28
66396;BME280;53207;51.378;-1.342;2023-03-03T08:57:52;101519.51;;;19.20;31.29
66396;BME280;53207;51.378;-1.342;2023-03-03T09:00:20;101522.44;;;19.38;31.32
66396;BME280;53207;51.378;-1.342;2023-03-03T09:02:47;101520.30;;;19.28;31.42
66396;BME280;53207;51.378;-1.342;2023-03-03T09:05:16;101519.90;;;19.02;31.45
66396;BME280;53207;51.378;-1.342;2023-03-03T09:07:44;101521.68;;;18.76;31.38
66396;BME280;53207;51.378;-1.342;2023-03-03T09:10:14;101525.84;;;19.06;31.78
66396;BME280;53207;51.378;-1.342;2023-03-03T09:12:42;101521.60;;;19.30;31.47
66396;BME280;53207;51.378;-1.342;2023-03-03T09:15:17;101526.91;;;19.29;31.73
66396;BME280;53207;51.378;-1.342;2023-03-03T09:17:46;101528.49;;;19.20;31.86
66396;BME280;53207;51.378;-1.342;2023-03-03T09:20:34;101528.81;;;18.97;31.81
66396;BME280;53207;51.378;-1.342;2023-03-03T09:23:28;101529.57;;;18.91;31.73
66396;BME280;53207;51.378;-1.342;2023-03-03T09:25:56;101529.93;;;19.10;31.65
66396;BME280;53207;51.378;-1.342;2023-03-03T09:28:25;101533.68;;;19.01;31.73
66396;BME280;53207;51.378;-1.342;2023-03-03T09:30:55;101537.38;;;18.93;31.79
66396;BME280;53207;51.378;-1.342;2023-03-03T09:33:25;101536.14;;;18.52;31.88
66396;BME280;53207;51.378;-1.342;2023-03-03T09:35:57;101540.31;;;18.81;31.76
66396;BME280;53207;51.378;-1.342;2023-03-03T09:38:29;101542.42;;;18.80;31.73
66396;BME280;53207;51.378;-1.342;2023-03-03T09:41:19;101544.42;;;18.90;31.73
66396;BME280;53207;51.378;-1.342;2023-03-03T09:44:02;101545.46;;;18.87;31.90
66396;BME280;53207;51.378;-1.342;2023-03-03T09:46:39;101548.09;;;18.68;32.12
66396;BME280;53207;51.378;-1.342;2023-03-03T09:49:18;101548.14;;;18.68;32.36
66396;BME280;53207;51.378;-1.342;2023-03-03T09:52:00;101549.58;;;18.69;33.07
66396;BME280;53207;51.378;-1.342;2023-03-03T09:54:42;101549.82;;;18.78;32.74
66396;BME280;53207;51.378;-1.342;2023-03-03T09:57:16;101554.50;;;18.62;32.48
66396;BME280;53207;51.378;-1.342;2023-03-03T10:00:03;101552.80;;;18.39;32.16
66396;BME280;53207;51.378;-1.342;2023-03-03T10:02:45;101549.61;;;18.21;32.23
66396;BME280;53207;51.378;-1.342;2023-03-03T10:05:20;101552.24;;;18.67;31.79
66396;BME280;53207;51.378;-1.342;2023-03-03T10:08:02;101553.61;;;18.34;31.37
66396;BME280;53207;51.378;-1.342;2023-03-03T10:10:46;101555.73;;;18.45;31.48
66396;BME280;53207;51.378;-1.342;2023-03-03T10:13:23;101556.89;;;17.99;31.60
66396;BME280;53207;51.378;-1.342;2023-03-03T10:16:05;101561.85;;;18.12;31.20
66396;BME280;53207;51.378;-1.342;2023-03-03T10:18:40;101561.04;;;17.88;31.30
66396;BME280;53207;51.378;-1.342;2023-03-03T10:21:10;101562.87;;;18.07;31.21
66396;BME280;53207;51.378;-1.342;2023-03-03T10:23:54;101561.20;;;17.91;30.98
66396;BME280;53207;51.378;-1.342;2023-03-03T10:26:34;101558.66;;;17.81;30.83
66396;BME280;53207;51.378;-1.342;2023-03-03T10:29:10;101558.73;;;17.80;30.76
66396;BME280;53207;51.378;-1.342;2023-03-03T10:31:48;101558.31;;;18.27;30.69
66396;BME280;53207;51.378;-1.342;2023-03-03T10:34:32;101556.76;;;17.93;30.31
66396;BME280;53207;51.378;-1.342;2023-03-03T10:37:07;101557.40;;;17.89;30.42
66396;BME280;53207;51.378;-1.342;2023-03-03T10:39:52;101557.36;;;17.92;30.64
66396;BME280;53207;51.378;-1.342;2023-03-03T10:42:36;101560.31;;;17.95;30.44
66396;BME280;53207;51.378;-1.342;2023-03-03T10:45:26;101557.05;;;18.00;30.22
66396;BME280;53207;51.378;-1.342;2023-03-03T10:48:08;101558.92;;;17.68;30.21
66396;BME280;53207;51.378;-1.342;2023-03-03T10:50:50;101560.58;;;17.78;30.11
66396;BME280;53207;51.378;-1.342;2023-03-03T10:53:25;101563.26;;;17.77;29.96
66396;BME280;53207;51.378;-1.342;2023-03-03T10:56:07;101564.18;;;17.67;29.93
66396;BME280;53207;51.378;-1.342;2023-03-03T10:58:45;101564.90;;;17.59;29.96
66396;BME280;53207;51.378;-1.342;2023-03-03T11:01:28;101569.22;;;17.62;29.88
66396;BME280;53207;51.378;-1.342;2023-03-03T11:04:10;101572.14;;;17.32;29.70
66396;BME280;53207;51.378;-1.342;2023-03-03T11:06:46;101574.21;;;17.41;29.81
66396;BME280;53207;51.378;-1.342;2023-03-03T11:09:30;101574.24;;;17.70;29.81
66396;BME280;53207;51.378;-1.342;2023-03-03T11:12:11;101580.42;;;17.57;29.93
66396;BME280;53207;51.378;-1.342;2023-03-03T11:14:46;101580.65;;;17.62;29.94
66396;BME280;53207;51.378;-1.342;2023-03-03T11:17:19;101581.21;;;17.73;29.95
66396;BME280;53207;51.378;-1.342;2023-03-03T11:20:00;101580.30;;;17.69;29.94
66396;BME280;53207;51.378;-1.342;2023-03-03T11:22:34;101581.33;;;17.73;29.93
66396;BME280;53207;51.378;-1.342;2023-03-03T11:25:16;101584.53;;;17.63;30.02
66396;BME280;53207;51.378;-1.342;2023-03-03T11:28:04;101586.00;;;17.54;29.85
66396;BME280;53207;51.378;-1.342;2023-03-03T11:30:49;101588.05;;;17.62;30.13
66396;BME280;53207;51.378;-1.342;2023-03-03T11:33:24;101589.67;;;17.73;30.06
66396;BME280;53207;51.378;-1.342;2023-03-03T11:36:04;101594.66;;;17.43;30.22
66396;BME280;53207;51.378;-1.342;2023-03-03T11:38:44;101592.24;;;17.58;30.06
66396;BME280;53207;51.378;-1.342;2023-03-03T11:41:25;101595.50;;;17.56;30.08
66396;BME280;53207;51.378;-1.342;2023-03-03T11:44:02;101592.02;;;17.82;30.02
66396;BME280;53207;51.378;-1.342;2023-03-03T11:46:37;101592.53;;;17.80;30.05
66396;BME280;53207;51.378;-1.342;2023-03-03T11:49:08;101592.25;;;17.93;29.93
66396;BME280;53207;51.378;-1.342;2023-03-03T11:51:46;101586.51;;;17.61;30.20
66396;BME280;53207;51.378;-1.342;2023-03-03T11:54:20;101585.99;;;17.77;30.06
66396;BME280;53207;51.378;-1.342;2023-03-03T11:56:50;101585.63;;;17.56;30.28
66396;BME280;53207;51.378;-1.342;2023-03-03T11:59:36;101586.33;;;17.65;30.02
66396;BME280;53207;51.378;-1.342;2023-03-03T12:02:17;101581.32;;;17.64;30.06
66396;BME280;53207;51.378;-1.342;2023-03-03T12:04:51;101581.94;;;17.61;30.07
66396;BME280;53207;51.378;-1.342;2023-03-03T12:07:29;101582.56;;;17.51;30.23
66396;BME280;53207;51.378;-1.342;2023-03-03T12:10:07;101585.58;;;17.41;30.30
66396;BME280;53207;51.378;-1.342;2023-03-03T12:12:42;101583.45;;;17.57;30.08
66396;BME280;53207;51.378;-1.342;2023-03-03T12:15:21;101582.56;;;17.68;30.02
66396;BME280;53207;51.378;-1.342;2023-03-03T12:19:17;101583.57;;;17.80;30.00
66396;BME280;53207;51.378;-1.342;2023-03-03T12:22:04;101584.62;;;17.57;30.09
66396;BME280;53207;51.378;-1.342;2023-03-03T12:24:50;101577.47;;;17.42;30.24
66396;BME280;53207;51.378;-1.342;2023-03-03T12:27:26;101575.21;;;17.56;30.01
66396;BME280;53207;51.378;-1.342;2023-03-03T12:30:04;101573.29;;;17.64;29.96
66396;BME280;53207;51.378;-1.342;2023-03-03T12:32:50;101570.27;;;17.49;30.01
66396;BME280;53207;51.378;-1.342;2023-03-03T12:35:30;101567.95;;;17.31;30.25
66396;BME280;53207;51.378;-1.342;2023-03-03T12:38:08;101568.23;;;17.41;30.17
66396;BME280;53207;51.378;-1.342;2023-03-03T12:40:43;101566.31;;;17.50;30.00
66396;BME280;53207;51.378;-1.342;2023-03-03T12:43:20;101569.52;;;17.69;30.05
66396;BME280;53207;51.378;-1.342;2023-03-03T12:45:56;101564.28;;;17.48;29.96
66396;BME280;53207;51.378;-1.342;2023-03-03T12:48:33;101560.93;;;17.44;30.02
66396;BME280;53207;51.378;-1.342;2023-03-03T12:51:09;101560.18;;;17.42;30.00
66396;BME280;53207;51.378;-1.342;2023-03-03T12:53:57;101559.21;;;17.44;29.91
66396;BME280;53207;51.378;-1.342;2023-03-03T12:56:32;101559.99;;;17.34;30.04
66396;BME280;53207;51.378;-1.342;2023-03-03T12:59:04;101559.07;;;17.31;30.06
66396;BME280;53207;51.378;-1.342;2023-03-03T13:01:44;101558.44;;;17.30;30.13
66396;BME280;53207;51.378;-1.342;2023-03-03T13:04:28;101557.43;;;17.64;30.04
66396;BME280;53207;51.378;-1.342;2023-03-03T13:07:04;101557.15;;;17.28;30.06